Time;durP1;ratioP1;P1;durP2;ratioP2;P2;SDS_P1;SDS_P2;PMS_P1;PMS_P2;Temp;Humidity;BMP_temperature;BMP_pressure;BME280_temperature;BME280_humidity;BME280_pressure;Samples;Min_cycle;Max_cycle;Signal;HPM_P1;HPM_P2
2023/08/14 00:01:28;;;;;;;8.48;4.43;;;19.00;99.90;;;;;;5115397;28;20018;-85
2023/08/14 00:03:55;;;;;;;10.57;5.68;;;18.90;99.90;;;;;;5095537;28;20074;-83
2023/08/14 00:06:21;;;;;;;7.63;5.00;;;18.80;99.90;;;;;;5096524;28;20026;-84
2023/08/14 00:08:47;;;;;;;17.08;5.38;;;18.70;99.90;;;;;;5104417;28;20040;-85
2023/08/14 00:11:13;;;;;;;6.13;5.10;;;18.70;99.90;;;;;;5116322;28;20427;-84
2023/08/14 00:13:53;;;;;;;8.43;5.50;;;18.60;99.90;;;;;;5095103;28;20022;-85
2023/08/14 00:16:20;;;;;;;5.20;4.70;;;18.50;99.90;;;;;;5100643;28;20024;-84
2023/08/14 00:18:46;;;;;;;7.53;5.00;;;18.50;99.90;;;;;;5128369;28;20044;-84
2023/08/14 00:21:12;;;;;;;7.13;5.07;;;18.40;99.90;;;;;;5123423;28;20031;-84
2023/08/14 00:23:38;;;;;;;6.93;5.78;;;18.40;99.90;;;;;;5112662;28;20012;-86
2023/08/14 00:26:05;;;;;;;6.13;5.28;;;18.40;99.90;;;;;;5128605;28;20031;-85
2023/08/14 00:28:32;;;;;;;9.60;4.43;;;18.40;99.90;;;;;;5128853;28;20019;-86
2023/08/14 00:30:58;;;;;;;7.27;5.03;;;18.40;99.90;;;;;;5105335;28;20024;-84
2023/08/14 00:33:24;;;;;;;6.70;5.53;;;18.40;99.90;;;;;;5113572;28;20264;-84
2023/08/14 00:35:49;;;;;;;9.35;5.75;;;18.40;99.90;;;;;;5099029;28;20066;-84
2023/08/14 00:38:15;;;;;;;7.70;4.78;;;18.40;99.90;;;;;;5103907;28;20016;-83
2023/08/14 00:40:41;;;;;;;7.70;5.53;;;18.40;99.90;;;;;;5096310;28;20054;-87
2023/08/14 00:43:07;;;;;;;6.82;5.20;;;18.40;99.90;;;;;;5089630;28;20020;-85
2023/08/14 00:45:33;;;;;;;6.97;5.38;;;18.40;99.90;;;;;;5094934;28;20024;-85
2023/08/14 00:47:59;;;;;;;9.68;6.00;;;18.40;99.90;;;;;;5118245;28;20091;-85
2023/08/14 00:50:26;;;;;;;6.97;5.68;;;18.40;99.90;;;;;;5112747;28;20051;-85
2023/08/14 00:52:55;;;;;;;8.90;5.53;;;18.40;99.90;;;;;;5097601;28;20020;-86
2023/08/14 00:55:25;;;;;;;9.20;5.78;;;18.50;99.90;;;;;;5113153;28;20024;-86
2023/08/14 00:57:55;;;;;;;7.50;5.07;;;18.60;99.90;;;;;;5080954;28;20052;-87
2023/08/14 01:00:22;;;;;;;7.90;5.43;;;18.70;99.90;;;;;;5111040;28;20028;-87
2023/08/14 01:02:49;;;;;;;7.18;5.20;;;18.70;99.90;;;;;;5127110;28;20031;-86
2023/08/14 01:05:15;;;;;;;7.13;5.55;;;18.70;99.90;;;;;;5113088;28;20097;-86
2023/08/14 01:07:41;;;;;;;5.53;4.95;;;18.80;99.90;;;;;;5098684;28;20024;-86
2023/08/14 01:10:10;;;;;;;11.00;5.10;;;18.80;99.90;;;;;;5101560;28;20050;-85
2023/08/14 01:12:50;;;;;;;6.82;4.55;;;18.80;99.90;;;;;;5120302;28;20024;-87
2023/08/14 01:15:21;;;;;;;5.15;4.65;;;18.80;99.90;;;;;;5109403;28;20049;-88
2023/08/14 01:17:53;;;;;;;5.30;4.80;;;18.80;99.90;;;;;;5109366;28;20423;-87
2023/08/14 01:20:21;;;;;;;6.90;4.65;;;18.80;99.90;;;;;;5120367;28;20381;-85
2023/08/14 01:23:16;;;;;;;7.07;5.20;;;18.80;99.90;;;;;;5115404;28;20011;-84
2023/08/14 01:25:43;;;;;;;6.00;4.50;;;18.80;99.90;;;;;;5093909;28;20084;-85
2023/08/14 01:28:10;;;;;;;5.72;5.05;;;18.90;99.90;;;;;;5116102;28;20023;-85
2023/08/14 01:30:36;;;;;;;6.05;4.70;;;18.90;99.90;;;;;;5104774;28;20163;-84
2023/08/14 01:33:02;;;;;;;7.10;4.80;;;18.80;99.90;;;;;;5114432;28;20048;-84
2023/08/14 01:35:37;;;;;;;5.70;5.07;;;18.80;99.90;;;;;;5104058;28;20024;-85
2023/08/14 01:38:16;;;;;;;8.15;4.88;;;18.90;99.90;;;;;;5108372;28;20080;-85
2023/08/14 01:41:27;;;;;;;4.63;3.83;;;18.90;99.90;;;;;;5084119;28;20088;-84
2023/08/14 01:43:57;;;;;;;8.55;5.43;;;18.90;99.90;;;;;;5030376;28;20506;-84
2023/08/14 01:46:25;;;;;;;5.55;4.53;;;18.90;99.90;;;;;;5030607;28;20039;-86
2023/08/14 01:48:55;;;;;;;5.25;4.60;;;19.00;99.90;;;;;;5011545;28;20055;-83
2023/08/14 01:51:22;;;;;;;4.15;3.75;;;19.00;99.90;;;;;;5029269;28;20036;-83
2023/08/14 01:53:48;;;;;;;;;;;19.00;99.90;;;;;;5018709;28;20053;-84
2023/08/14 01:56:14;;;;;;;5.47;3.83;;;19.00;99.90;;;;;;5041820;28;20071;-84
2023/08/14 01:58:40;;;;;;;4.38;3.80;;;19.00;99.90;;;;;;5032181;28;20089;-84
2023/08/14 02:01:06;;;;;;;3.40;3.10;;;19.00;99.90;;;;;;5029751;28;20426;-86
2023/08/14 02:03:32;;;;;;;5.32;3.55;;;19.10;99.90;;;;;;5018855;28;20028;-87
2023/08/14 02:05:58;;;;;;;5.13;4.00;;;19.10;99.90;;;;;;5029451;28;20509;-86
2023/08/14 02:08:23;;;;;;;6.05;3.33;;;19.20;99.90;;;;;;5027582;28;20380;-85
2023/08/14 02:10:49;;;;;;;3.90;3.15;;;19.20;99.90;;;;;;5036986;28;20036;-85
2023/08/14 02:13:15;;;;;;;3.70;3.40;;;19.20;99.90;;;;;;5015803;28;20025;-86
2023/08/14 02:15:45;;;;;;;3.50;2.38;;;19.20;99.90;;;;;;5112402;28;20503;-83
2023/08/14 02:18:11;;;;;;;4.80;2.80;;;19.20;99.90;;;;;;5120837;28;20020;-83
2023/08/14 02:20:46;;;;;;;4.05;3.00;;;19.00;99.90;;;;;;5112768;28;20040;-84
2023/08/14 02:23:12;;;;;;;3.67;3.38;;;18.80;99.90;;;;;;5115362;28;20020;-86
2023/08/14 02:25:44;;;;;;;4.90;3.25;;;18.60;99.90;;;;;;5114793;28;20068;-86
2023/08/14 02:28:11;;;;;;;4.72;3.45;;;18.60;99.90;;;;;;5096095;28;20032;-86
2023/08/14 02:30:41;;;;;;;3.63;3.25;;;18.60;99.90;;;;;;5118452;28;20453;-86
2023/08/14 02:33:08;;;;;;;3.90;3.40;;;18.60;99.90;;;;;;5093731;28;20020;-84
2023/08/14 02:35:34;;;;;;;4.07;3.13;;;18.50;99.90;;;;;;5109519;28;20061;-86
2023/08/14 02:38:05;;;;;;;4.90;2.83;;;18.60;99.90;;;;;;5117979;28;20489;-86
2023/08/14 02:40:31;;;;;;;3.83;2.80;;;18.60;99.90;;;;;;5093840;28;20126;-86
2023/08/14 02:43:00;;;;;;;4.28;3.25;;;18.50;99.90;;;;;;5119324;28;20108;-85
2023/08/14 02:45:25;;;;;;;3.67;2.95;;;18.50;99.90;;;;;;5100286;28;20443;-86
2023/08/14 02:47:51;;;;;;;3.35;3.03;;;18.50;99.90;;;;;;5107806;28;20015;-85
2023/08/14 02:50:17;;;;;;;2.88;2.45;;;18.60;99.90;;;;;;5117528;28;20044;-84
2023/08/14 02:52:43;;;;;;;3.60;2.40;;;18.60;99.90;;;;;;5102307;28;20043;-85
2023/08/14 02:55:09;;;;;;;3.65;2.33;;;18.70;99.90;;;;;;5108926;28;20023;-84
2023/08/14 02:57:35;;;;;;;3.47;2.83;;;18.60;99.90;;;;;;5127003;28;20103;-85
2023/08/14 03:00:01;;;;;;;2.63;2.42;;;18.70;99.90;;;;;;5112029;28;20496;-85
2023/08/14 03:02:26;;;;;;;3.65;2.30;;;18.80;99.90;;;;;;5099950;28;20050;-84
2023/08/14 03:04:54;;;;;;;3.45;2.60;;;18.80;99.90;;;;;;5125267;28;20012;-85
2023/08/14 03:07:20;;;;;;;3.00;2.50;;;18.80;99.90;;;;;;5094471;28;20029;-85
2023/08/14 03:09:46;;;;;;;3.00;2.33;;;18.80;99.90;;;;;;5117642;28;20071;-87
2023/08/14 03:12:12;;;;;;;2.13;1.88;;;18.80;99.90;;;;;;5096556;28;20058;-85
2023/08/14 03:14:37;;;;;;;4.68;2.78;;;18.80;99.90;;;;;;5111787;28;20024;-86
2023/08/14 03:17:03;;;;;;;3.65;2.92;;;18.90;99.90;;;;;;5088122;28;20028;-86
2023/08/14 03:19:29;;;;;;;5.00;3.25;;;18.80;99.90;;;;;;5112430;28;20035;-86
2023/08/14 03:21:55;;;;;;;3.70;2.80;;;18.90;99.90;;;;;;5094711;28;20039;-85
2023/08/14 03:24:21;;;;;;;4.35;2.60;;;18.90;99.90;;;;;;5124139;28;20071;-86
2023/08/14 03:26:47;;;;;;;2.92;2.50;;;19.00;99.90;;;;;;5109183;28;20020;-86
2023/08/14 03:29:12;;;;;;;3.78;3.03;;;19.10;99.90;;;;;;5105425;28;20023;-86
2023/08/14 03:31:38;;;;;;;4.35;3.35;;;19.10;99.90;;;;;;5109979;28;20076;-86
2023/08/14 03:34:04;;;;;;;4.00;3.30;;;19.20;99.90;;;;;;5109578;28;20020;-85
2023/08/14 03:36:30;;;;;;;5.63;4.45;;;19.20;99.90;;;;;;5096644;28;20024;-86
2023/08/14 03:38:56;;;;;;;4.82;3.67;;;19.30;99.90;;;;;;5099063;28;20023;-86
2023/08/14 03:41:22;;;;;;;7.20;3.72;;;19.40;99.90;;;;;;5092996;28;20038;-86
2023/08/14 03:43:48;;;;;;;5.13;3.75;;;19.40;99.90;;;;;;5108000;28;20042;-85
2023/08/14 03:46:14;;;;;;;5.13;3.13;;;19.50;99.90;;;;;;5096353;28;20036;-86
2023/08/14 03:48:40;;;;;;;3.50;2.97;;;19.60;99.90;;;;;;5117771;28;20031;-84
2023/08/14 03:51:06;;;;;;;3.58;3.28;;;19.60;99.90;;;;;;5118863;28;20028;-85
2023/08/14 03:53:33;;;;;;;4.88;3.17;;;19.70;99.90;;;;;;5122791;28;20016;-85
2023/08/14 03:55:59;;;;;;;6.05;3.08;;;19.70;99.90;;;;;;5113800;28;20428;-85
2023/08/14 03:58:25;;;;;;;4.45;3.38;;;19.70;99.90;;;;;;5084882;28;20034;-85
2023/08/14 04:00:51;;;;;;;4.00;3.60;;;19.70;99.90;;;;;;5089644;28;20070;-83
2023/08/14 04:03:17;;;;;;;3.38;3.08;;;19.60;99.90;;;;;;5091972;28;20020;-84
2023/08/14 04:05:43;;;;;;;5.07;4.03;;;19.60;99.90;;;;;;5097396;28;20024;-84
2023/08/14 04:08:09;;;;;;;4.60;3.78;;;19.50;99.90;;;;;;5110086;28;20035;-84
2023/08/14 04:10:36;;;;;;;5.93;3.42;;;19.40;99.90;;;;;;5097665;28;20059;-84
2023/08/14 04:13:03;;;;;;;4.53;3.40;;;19.30;99.90;;;;;;5117483;28;20038;-83
2023/08/14 04:15:29;;;;;;;4.75;4.13;;;19.20;99.90;;;;;;5096254;28;20043;-85
2023/08/14 04:17:55;;;;;;;5.65;5.05;;;19.20;99.90;;;;;;5121931;28;20023;-84
2023/08/14 04:20:21;;;;;;;7.88;5.07;;;19.30;99.90;;;;;;5091595;28;20032;-87
2023/08/14 04:22:47;;;;;;;5.82;5.15;;;19.20;99.90;;;;;;5107380;28;20362;-84
2023/08/14 04:25:13;;;;;;;8.70;6.65;;;19.30;99.90;;;;;;5116064;28;20020;-86
2023/08/14 04:27:39;;;;;;;9.02;6.05;;;19.30;99.90;;;;;;5097436;28;20416;-87
2023/08/14 04:30:06;;;;;;;7.82;6.75;;;19.30;99.90;;;;;;5111623;28;20020;-85
2023/08/14 04:32:35;;;;;;;11.10;6.90;;;19.40;99.90;;;;;;5119714;28;20110;-87
2023/08/14 04:35:01;;;;;;;8.20;6.22;;;19.40;99.90;;;;;;5088685;28;20028;-85
2023/08/14 04:37:27;;;;;;;8.32;6.50;;;19.50;99.90;;;;;;5114119;27;20099;-85
2023/08/14 04:39:52;;;;;;;10.38;6.18;;;19.50;99.90;;;;;;5121190;27;20099;-86
2023/08/14 04:42:18;;;;;;;8.15;6.72;;;19.60;99.90;;;;;;5114550;28;20031;-86
2023/08/14 04:44:45;;;;;;;9.00;7.60;;;19.60;99.90;;;;;;5113963;28;20020;-85
2023/08/14 04:47:11;;;;;;;7.82;7.00;;;19.70;99.90;;;;;;5108724;28;20112;-86
2023/08/14 04:49:37;;;;;;;7.97;7.18;;;19.80;99.90;;;;;;5116931;28;20047;-87
2023/08/14 04:52:03;;;;;;;11.23;8.07;;;19.80;99.90;;;;;;5111272;28;20020;-85
2023/08/14 04:54:31;;;;;;;9.00;6.88;;;19.90;99.90;;;;;;5094062;28;20058;-85
2023/08/14 04:56:57;;;;;;;7.30;6.40;;;20.00;99.90;;;;;;5095292;28;20019;-84
2023/08/14 04:59:24;;;;;;;7.53;6.53;;;20.00;99.90;;;;;;5112603;28;20024;-84
2023/08/14 05:01:49;;;;;;;7.97;6.50;;;20.00;99.90;;;;;;5099313;28;20036;-85
2023/08/14 05:04:15;;;;;;;9.85;7.10;;;20.00;99.90;;;;;;5114482;28;20487;-84
2023/08/14 05:06:41;;;;;;;6.78;6.18;;;20.10;99.90;;;;;;5083216;28;20031;-85
2023/08/14 05:09:07;;;;;;;8.95;7.25;;;20.10;99.90;;;;;;5111551;28;20066;-84
2023/08/14 05:11:33;;;;;;;9.85;8.65;;;20.10;99.90;;;;;;5090474;28;20028;-85
2023/08/14 05:13:59;;;;;;;9.15;8.27;;;20.10;99.90;;;;;;5116804;28;20019;-85
2023/08/14 05:16:26;;;;;;;9.27;8.27;;;20.10;99.90;;;;;;5100443;28;20118;-86
2023/08/14 05:18:51;;;;;;;8.60;7.63;;;20.10;99.90;;;;;;5127254;28;20019;-85
2023/08/14 05:21:17;;;;;;;8.50;7.55;;;20.20;99.90;;;;;;5104468;28;20031;-86
2023/08/14 05:23:43;;;;;;;8.77;7.65;;;20.30;99.90;;;;;;5097754;28;20381;-84
2023/08/14 05:26:09;;;;;;;10.73;9.43;;;20.30;99.90;;;;;;5112314;28;20032;-82
2023/08/14 05:28:35;;;;;;;9.40;7.00;;;20.40;99.90;;;;;;5116512;28;20417;-84
2023/08/14 05:31:01;;;;;;;8.20;6.97;;;20.50;99.90;;;;;;5103535;28;20176;-84
2023/08/14 05:33:27;;;;;;;11.65;8.63;;;20.50;99.90;;;;;;5120006;28;20020;-85
2023/08/14 05:35:52;;;;;;;9.18;7.88;;;20.30;99.90;;;;;;5104848;28;20028;-86
2023/08/14 05:38:18;;;;;;;9.25;8.35;;;20.20;99.90;;;;;;5097682;28;20019;-86
2023/08/14 05:40:44;;;;;;;8.85;8.00;;;20.20;99.90;;;;;;5101935;28;20039;-85
2023/08/14 05:43:12;;;;;;;10.48;8.02;;;20.10;99.90;;;;;;5089488;28;20012;-85
2023/08/14 05:45:43;;;;;;;9.60;8.27;;;20.00;99.90;;;;;;5135426;28;20024;-86
2023/08/14 05:48:10;;;;;;;10.95;8.85;;;19.90;99.90;;;;;;5121098;28;20019;-85
2023/08/14 05:50:36;;;;;;;10.32;8.52;;;19.80;99.90;;;;;;5097707;28;20026;-84
2023/08/14 05:53:04;;;;;;;10.03;8.00;;;19.80;99.90;;;;;;5108735;28;20036;-85
2023/08/14 05:55:35;;;;;;;8.60;7.70;;;19.80;99.90;;;;;;5093513;28;20545;-84
2023/08/14 05:58:03;;;;;;;8.73;7.43;;;19.80;99.90;;;;;;5099821;28;20016;-86
2023/08/14 06:00:30;;;;;;;11.70;8.85;;;19.80;99.90;;;;;;5116408;28;20036;-84
2023/08/14 06:02:56;;;;;;;12.93;9.35;;;19.70;99.90;;;;;;5091387;28;20087;-86
2023/08/14 06:05:23;;;;;;;11.20;8.35;;;19.60;99.90;;;;;;5082725;28;20072;-88
2023/08/14 06:07:51;;;;;;;8.63;7.68;;;19.60;99.90;;;;;;5116247;28;20020;-87
2023/08/14 06:10:17;;;;;;;11.98;8.35;;;19.70;99.90;;;;;;5092802;28;20039;-89
2023/08/14 06:12:44;;;;;;;10.38;8.80;;;19.70;99.90;;;;;;5088239;28;20082;-87
2023/08/14 06:15:11;;;;;;;8.05;7.25;;;19.90;99.90;;;;;;5075955;28;20028;-88
2023/08/14 06:17:38;;;;;;;;;;;20.10;99.90;;;;;;5091224;28;20063;-86
2023/08/14 06:20:05;;;;;;;9.35;7.40;;;20.40;99.90;;;;;;5094803;28;19987;-86
2023/08/14 06:22:31;;;;;;;;;;;20.70;99.90;;;;;;5095214;28;20028;-84
2023/08/14 06:24:57;;;;;;;9.60;7.50;;;21.10;99.90;;;;;;5095653;28;19942;-84
2023/08/14 06:27:23;;;;;;;7.47;6.28;;;21.50;99.90;;;;;;5096226;28;20012;-86
2023/08/14 06:29:49;;;;;;;11.23;8.30;;;21.50;99.90;;;;;;5088583;28;20020;-84
2023/08/14 06:32:15;;;;;;;10.23;7.53;;;21.60;99.90;;;;;;5087065;28;20509;-85
2023/08/14 06:34:41;;;;;;;11.02;7.35;;;22.00;99.90;;;;;;5098387;28;20484;-83
2023/08/14 06:37:07;;;;;;;10.18;7.30;;;22.10;99.90;;;;;;5099146;28;20085;-84
2023/08/14 06:39:33;;;;;;;7.70;6.38;;;22.10;99.90;;;;;;5096336;28;20461;-85
2023/08/14 06:41:59;;;;;;;6.65;5.97;;;22.40;99.40;;;;;;5098753;28;20088;-87
2023/08/14 06:44:25;;;;;;;6.60;5.90;;;23.20;98.10;;;;;;5099380;28;20020;-85
2023/08/14 06:46:51;;;;;;;7.90;6.30;;;24.10;95.60;;;;;;5098181;28;20028;-86
2023/08/14 06:49:17;;;;;;;7.38;6.68;;;24.40;94.10;;;;;;5097881;28;20020;-84
2023/08/14 06:51:43;;;;;;;7.57;6.88;;;24.60;93.90;;;;;;5094689;28;20023;-85
2023/08/14 06:54:09;;;;;;;7.28;6.40;;;24.60;93.20;;;;;;5097991;28;20074;-88
2023/08/14 06:56:35;;;;;;;6.83;6.03;;;24.60;93.00;;;;;;5097671;28;20031;-86
2023/08/14 06:59:01;;;;;;;8.95;7.38;;;24.50;93.30;;;;;;5099229;28;20020;-86
2023/08/14 07:01:27;;;;;;;6.65;5.90;;;24.40;92.80;;;;;;5100473;28;20039;-86
2023/08/14 07:03:53;;;;;;;8.73;6.97;;;23.80;93.10;;;;;;5099332;28;20012;-86
2023/08/14 07:06:19;;;;;;;10.75;6.75;;;23.30;94.30;;;;;;5094648;28;20062;-87
2023/08/14 07:08:45;;;;;;;10.93;7.35;;;23.10;94.90;;;;;;5104318;28;20046;-85
2023/08/14 07:11:10;;;;;;;8.00;6.68;;;22.90;95.50;;;;;;5123752;28;20032;-87
2023/08/14 07:13:36;;;;;;;12.02;7.88;;;22.60;95.80;;;;;;5128832;28;20074;-87
2023/08/14 07:16:02;;;;;;;7.90;6.97;;;22.40;96.40;;;;;;5125198;28;20389;-87
2023/08/14 07:18:30;;;;;;;7.22;6.53;;;22.40;97.00;;;;;;5114674;28;20694;-88
2023/08/14 07:20:58;;;;;;;;;;;22.30;96.90;;;;;;5103971;28;20036;-86
2023/08/14 07:23:23;;;;;;;6.55;5.85;;;22.10;96.90;;;;;;5102891;28;20295;-86
2023/08/14 07:25:52;;;;;;;10.75;7.38;;;22.00;97.20;;;;;;5120805;28;20024;-88
2023/08/14 07:28:18;;;;;;;12.10;7.75;;;22.10;97.80;;;;;;5099853;28;20473;-88
2023/08/14 07:30:44;;;;;;;12.35;6.85;;;22.10;97.60;;;;;;5095871;28;20031;-89
2023/08/14 07:33:10;;;;;;;10.40;7.15;;;22.20;97.50;;;;;;5103229;28;20473;-86
2023/08/14 07:35:37;;;;;;;9.13;6.70;;;22.30;97.80;;;;;;5105253;28;20045;-85
2023/08/14 07:38:03;;;;;;;7.83;7.07;;;22.50;97.20;;;;;;5119465;28;20020;-83
2023/08/14 07:40:29;;;;;;;10.33;7.03;;;22.40;97.10;;;;;;5132408;28;20030;-84
2023/08/14 07:42:55;;;;;;;8.90;6.47;;;22.60;97.10;;;;;;5120360;28;20024;-84
2023/08/14 07:45:21;;;;;;;12.60;8.13;;;22.80;96.50;;;;;;5121319;28;20039;-85
2023/08/14 07:47:47;;;;;;;8.52;6.50;;;23.10;96.30;;;;;;5119041;28;20023;-85
2023/08/14 07:50:12;;;;;;;11.60;7.82;;;23.20;95.30;;;;;;5099827;28;20106;-84
2023/08/14 07:52:39;;;;;;;24.38;8.90;;;23.20;95.50;;;;;;5100469;28;20030;-85
2023/08/14 07:55:05;;;;;;;10.48;7.43;;;23.20;95.70;;;;;;5118534;28;20026;-84
2023/08/14 07:57:33;;;;;;;14.93;7.88;;;23.60;95.40;;;;;;5118805;28;20564;-87
2023/08/14 07:59:58;;;;;;;;;;;23.70;94.60;;;;;;5094324;28;20035;-86
2023/08/14 08:02:24;;;;;;;9.85;6.15;;;23.60;94.70;;;;;;5121917;28;19934;-87
2023/08/14 08:04:50;;;;;;;14.80;8.32;;;23.10;94.70;;;;;;5104270;28;20018;-86
2023/08/14 08:07:16;;;;;;;9.45;7.65;;;22.60;95.90;;;;;;5118135;28;20024;-85
2023/08/14 08:09:42;;;;;;;11.73;7.15;;;22.60;96.20;;;;;;5112621;28;20043;-87
2023/08/14 08:12:09;;;;;;;10.07;7.35;;;22.40;96.20;;;;;;5115205;28;20488;-86
2023/08/14 08:14:36;;;;;;;10.07;7.25;;;22.20;96.70;;;;;;5113225;28;20020;-86
2023/08/14 08:17:02;;;;;;;14.15;8.52;;;22.10;97.30;;;;;;5115552;28;20016;-86
2023/08/14 08:19:28;;;;;;;11.80;7.68;;;22.30;97.40;;;;;;5100152;28;20034;-88
2023/08/14 08:21:54;;;;;;;11.27;7.63;;;22.40;97.00;;;;;;5101012;28;20040;-85
2023/08/14 08:24:20;;;;;;;18.42;7.97;;;22.40;96.90;;;;;;5118249;28;20016;-85
2023/08/14 08:26:48;;;;;;;13.15;7.38;;;22.40;96.90;;;;;;5119505;28;20023;-85
2023/08/14 08:29:14;;;;;;;7.82;6.80;;;22.40;96.70;;;;;;5117873;28;20020;-85
2023/08/14 08:31:40;;;;;;;11.25;7.05;;;22.50;96.50;;;;;;5102140;28;20024;-84
2023/08/14 08:34:06;;;;;;;18.25;6.63;;;22.60;96.50;;;;;;5097844;28;20068;-84
2023/08/14 08:36:32;;;;;;;9.85;6.88;;;22.70;96.30;;;;;;5114064;28;20094;-86
2023/08/14 08:38:58;;;;;;;8.90;6.20;;;22.80;96.10;;;;;;5100180;28;20027;-85
2023/08/14 08:41:39;;;;;;;12.38;6.18;;;22.90;95.50;;;;;;5104013;28;20036;-85
2023/08/14 08:44:39;;;;;;;8.10;5.93;;;23.00;95.80;;;;;;5120257;28;20028;-85
2023/08/14 08:47:09;;;;;;;10.73;6.03;;;23.00;95.20;;;;;;5081179;28;20036;-85
2023/08/14 08:49:36;;;;;;;7.07;5.78;;;22.80;95.40;;;;;;5122993;28;20027;-83
2023/08/14 08:52:03;;;;;;;10.30;6.85;;;22.90;95.50;;;;;;5120299;28;20028;-85
2023/08/14 08:54:29;;;;;;;;;;;22.90;95.50;;;;;;5119632;28;20032;-85
2023/08/14 08:57:02;;;;;;;12.82;7.40;;;23.00;95.60;;;;;;5098753;28;19908;-86
2023/08/14 08:59:28;;;;;;;10.10;7.63;;;23.10;95.60;;;;;;5117721;28;20020;-86
2023/08/14 09:01:54;;;;;;;7.00;5.95;;;23.10;95.30;;;;;;5099124;28;20598;-84
2023/08/14 09:04:19;;;;;;;7.93;6.40;;;22.80;95.10;;;;;;5107190;28;20024;-86
2023/08/14 09:06:45;;;;;;;12.13;7.50;;;22.40;95.70;;;;;;5097518;28;20032;-83
2023/08/14 09:09:13;;;;;;;8.25;6.55;;;22.30;96.50;;;;;;5117482;28;20128;-83
2023/08/14 09:11:39;;;;;;;7.63;6.45;;;22.30;96.40;;;;;;5115737;28;20511;-84
2023/08/14 09:14:06;;;;;;;6.88;6.18;;;22.20;96.50;;;;;;5121723;28;20072;-86
2023/08/14 09:16:32;;;;;;;12.40;5.95;;;22.10;96.60;;;;;;5122354;28;20022;-86
2023/08/14 09:18:59;;;;;;;9.18;7.38;;;22.10;96.70;;;;;;5116084;28;20016;-85
2023/08/14 09:21:26;;;;;;;10.45;6.60;;;22.10;96.80;;;;;;5092953;28;20077;-85
2023/08/14 09:23:53;;;;;;;8.00;6.63;;;22.20;96.70;;;;;;5112852;28;20035;-82
2023/08/14 09:26:19;;;;;;;9.18;6.82;;;22.40;96.70;;;;;;5115834;28;20229;-86
2023/08/14 09:28:46;;;;;;;9.67;8.60;;;22.60;96.30;;;;;;5105094;28;20028;-85
2023/08/14 09:31:13;;;;;;;11.13;6.95;;;22.80;96.10;;;;;;5088566;28;20279;-83
2023/08/14 09:33:42;;;;;;;8.63;6.32;;;23.00;95.80;;;;;;5090630;28;20032;-86
2023/08/14 09:36:08;;;;;;;8.50;6.57;;;23.10;95.30;;;;;;5106024;28;20019;-86
2023/08/14 09:38:36;;;;;;;7.55;6.47;;;23.10;95.20;;;;;;5117281;28;20044;-85
2023/08/14 09:41:03;;;;;;;7.00;6.38;;;23.10;95.00;;;;;;5098335;28;20039;-84
2023/08/14 09:43:33;;;;;;;10.50;7.13;;;23.10;95.10;;;;;;5103076;28;20049;-88
2023/08/14 09:46:02;;;;;;;8.63;7.00;;;23.00;95.50;;;;;;5097591;28;20074;-85
2023/08/14 09:48:47;;;;;;;9.48;6.82;;;22.90;95.40;;;;;;5081594;28;20092;-85
2023/08/14 09:51:18;;;;;;;8.75;6.90;;;22.70;95.50;;;;;;5112768;28;20027;-85
2023/08/14 09:53:53;;;;;;;8.82;6.53;;;22.40;95.80;;;;;;5083661;28;20030;-84
2023/08/14 09:56:20;;;;;;;10.10;8.18;;;22.20;96.30;;;;;;5102098;28;20030;-85
2023/08/14 09:58:46;;;;;;;;;;;22.10;96.70;;;;;;5126245;28;20076;-84
2023/08/14 10:01:14;;;;;;;8.57;6.78;;;22.10;96.50;;;;;;5095674;28;19911;-85
2023/08/14 10:03:41;;;;;;;7.90;6.85;;;22.00;96.70;;;;;;5121647;28;20013;-85
2023/08/14 10:06:10;;;;;;;8.90;7.22;;;21.80;97.10;;;;;;5079964;28;20126;-85
2023/08/14 10:08:38;;;;;;;10.45;7.78;;;21.80;97.30;;;;;;5068549;28;20033;-84
2023/08/14 10:11:06;;;;;;;8.73;7.82;;;21.80;97.60;;;;;;5071079;28;20041;-83
2023/08/14 10:13:46;;;;;;;9.13;7.00;;;21.80;97.90;;;;;;5073116;28;20028;-85
2023/08/14 10:16:18;;;;;;;12.90;8.98;;;22.00;97.60;;;;;;5070461;28;20033;-84
2023/08/14 10:18:47;;;;;;;13.02;7.60;;;22.40;97.30;;;;;;5063734;28;20055;-86
2023/08/14 10:21:16;;;;;;;8.48;6.15;;;22.80;96.40;;;;;;5067618;28;20040;-87
2023/08/14 10:23:49;;;;;;;7.88;6.78;;;23.00;95.90;;;;;;5051054;28;20024;-86
2023/08/14 10:26:15;;;;;;;15.65;9.60;;;23.00;95.70;;;;;;5073773;28;20041;-84
2023/08/14 10:28:43;;;;;;;7.83;7.10;;;22.80;96.30;;;;;;5071219;28;20063;-84
2023/08/14 10:31:10;;;;;;;9.07;7.22;;;22.70;96.60;;;;;;5061982;28;20101;-83
2023/08/14 10:33:37;;;;;;;7.93;7.07;;;22.50;96.50;;;;;;5081916;28;20025;-86
2023/08/14 10:36:03;;;;;;;9.13;8.02;;;22.40;96.70;;;;;;5067987;28;20120;-86
2023/08/14 10:38:43;;;;;;;9.23;7.30;;;22.10;97.20;;;;;;5083650;28;20048;-85
2023/08/14 10:41:10;;;;;;;11.65;7.45;;;22.00;97.20;;;;;;5078666;28;20147;-85
2023/08/14 10:43:36;;;;;;;13.02;9.10;;;22.00;97.30;;;;;;5100405;28;20420;-84
2023/08/14 10:46:09;;;;;;;8.23;7.28;;;22.20;97.40;;;;;;5095632;28;20043;-83
2023/08/14 10:48:37;;;;;;;9.80;7.30;;;22.40;97.00;;;;;;5080191;28;20032;-87
2023/08/14 10:51:03;;;;;;;11.85;7.88;;;22.70;96.30;;;;;;5079299;28;20075;-86
2023/08/14 10:53:30;;;;;;;11.07;7.32;;;22.90;95.90;;;;;;5077184;28;20402;-86
2023/08/14 10:56:00;;;;;;;11.82;8.07;;;23.00;95.50;;;;;;5089069;28;20032;-85
2023/08/14 10:58:32;;;;;;;11.70;7.72;;;23.00;95.30;;;;;;5091057;28;20592;-84
2023/08/14 11:00:59;;;;;;;13.32;8.35;;;23.00;95.30;;;;;;5094607;28;20093;-85
2023/08/14 11:03:25;;;;;;;14.27;7.68;;;23.10;95.60;;;;;;5094805;28;20026;-84
2023/08/14 11:05:51;;;;;;;10.03;7.90;;;23.60;95.40;;;;;;5095310;28;20078;-85
2023/08/14 11:08:18;;;;;;;9.02;7.32;;;24.00;93.90;;;;;;5118709;28;20015;-85
2023/08/14 11:10:44;;;;;;;10.07;7.77;;;24.30;93.00;;;;;;5109149;28;20141;-83
2023/08/14 11:13:11;;;;;;;8.77;6.82;;;24.50;92.30;;;;;;5098244;28;20268;-85
2023/08/14 11:15:39;;;;;;;16.05;8.40;;;24.40;91.90;;;;;;5091279;28;20043;-86
2023/08/14 11:18:09;;;;;;;9.02;8.13;;;24.40;92.30;;;;;;5094543;28;20028;-85
2023/08/14 11:20:43;;;;;;;13.02;8.20;;;24.50;92.20;;;;;;5074473;28;20230;-86
2023/08/14 11:23:10;;;;;;;13.02;8.57;;;24.60;91.80;;;;;;5087696;28;20028;-85
2023/08/14 11:25:37;;;;;;;12.10;8.20;;;24.50;91.90;;;;;;5094808;28;20048;-86
2023/08/14 11:28:03;;;;;;;15.25;7.85;;;24.40;92.00;;;;;;5096430;28;20261;-86
2023/08/14 11:30:36;;;;;;;11.43;9.65;;;24.40;91.90;;;;;;5103961;28;20086;-88
2023/08/14 11:33:04;;;;;;;8.70;7.90;;;24.50;92.20;;;;;;5097189;28;20036;-87
2023/08/14 11:35:30;;;;;;;12.90;10.13;;;24.50;91.60;;;;;;5098161;28;20115;-86
2023/08/14 11:37:57;;;;;;;11.63;9.53;;;24.60;91.50;;;;;;5097096;28;20179;-86
2023/08/14 11:40:24;;;;;;;12.20;8.50;;;24.70;91.20;;;;;;5079545;28;20099;-86
2023/08/14 11:42:50;;;;;;;;;;;24.60;91.20;;;;;;5081536;28;20393;-85
2023/08/14 11:45:16;;;;;;;10.50;9.40;;;24.40;91.40;;;;;;5079814;28;19904;-85
2023/08/14 11:47:52;;;;;;;18.73;10.07;;;24.10;91.90;;;;;;5077002;28;20509;-85
2023/08/14 11:50:18;;;;;;;9.48;8.48;;;24.00;92.30;;;;;;5075454;28;20035;-85
2023/08/14 11:52:45;;;;;;;13.32;8.68;;;24.10;92.10;;;;;;5098832;28;20029;-84
2023/08/14 11:55:13;;;;;;;13.48;9.07;;;24.10;92.00;;;;;;5099626;28;20480;-85
2023/08/14 11:57:39;;;;;;;11.93;8.68;;;24.30;92.00;;;;;;5100424;28;20032;-84
2023/08/14 12:00:15;;;;;;;12.18;7.93;;;24.50;91.40;;;;;;5100639;28;20020;-86
2023/08/14 12:02:41;;;;;;;13.75;8.80;;;24.70;91.40;;;;;;5119443;28;20369;-85
2023/08/14 12:05:08;;;;;;;14.65;9.10;;;25.00;90.90;;;;;;5100253;28;20385;-84
2023/08/14 12:07:35;;;;;;;9.00;8.05;;;25.10;90.40;;;;;;5103684;28;20035;-85
2023/08/14 12:10:09;;;;;;;13.02;8.15;;;25.00;90.30;;;;;;5101628;28;20044;-85
2023/08/14 12:12:35;;;;;;;10.60;8.65;;;24.80;90.10;;;;;;5095798;28;20023;-87
2023/08/14 12:15:01;;;;;;;16.48;9.40;;;24.40;90.60;;;;;;5121001;28;20076;-85
2023/08/14 12:17:29;;;;;;;9.77;8.75;;;24.10;91.40;;;;;;5116972;28;20024;-84
2023/08/14 12:19:59;;;;;;;15.48;9.32;;;23.90;91.80;;;;;;5090085;28;20459;-85
2023/08/14 12:22:26;;;;;;;12.23;9.98;;;23.80;92.30;;;;;;5120789;28;20469;-89
2023/08/14 12:24:53;;;;;;;8.88;7.97;;;23.80;92.40;;;;;;5120340;28;20137;-86
2023/08/14 12:27:24;;;;;;;12.48;9.25;;;23.70;92.40;;;;;;5118218;28;20031;-86
2023/08/14 12:29:51;;;;;;;13.43;9.65;;;23.70;92.50;;;;;;5103678;28;20051;-89
2023/08/14 12:32:18;;;;;;;20.08;10.98;;;23.60;92.50;;;;;;5111173;28;20047;-87
2023/08/14 12:34:44;;;;;;;9.40;8.45;;;23.50;92.90;;;;;;5127446;28;20162;-85
2023/08/14 12:37:12;;;;;;;15.70;9.88;;;23.40;93.00;;;;;;5110294;28;20020;-86
2023/08/14 12:39:38;;;;;;;17.98;11.05;;;23.60;93.10;;;;;;5106485;28;20020;-88
2023/08/14 12:42:05;;;;;;;19.08;9.95;;;23.80;93.20;;;;;;5105225;28;20073;-86
2023/08/14 12:44:31;;;;;;;10.40;8.70;;;24.10;92.60;;;;;;5100199;28;20031;-85
2023/08/14 12:46:57;;;;;;;10.45;8.93;;;24.20;92.40;;;;;;5128805;28;20050;-87